createdAt,value
2018-07-09T00:00:02.866Z,15.1
2018-07-09T00:05:02.734Z,15.1
2018-07-09T00:10:03.214Z,15.1
2018-07-09T00:15:02.645Z,15.1
2018-07-09T00:20:03.054Z,15.1
2018-07-09T00:25:02.484Z,15.0
2018-07-09T00:30:02.895Z,14.8
2018-07-09T00:35:02.405Z,14.8
2018-07-09T00:40:02.974Z,14.8
2018-07-09T00:45:02.383Z,14.6
2018-07-09T00:50:02.897Z,14.6
2018-07-09T00:55:02.290Z,14.5
2018-07-09T01:00:02.772Z,14.6
2018-07-09T01:05:02.258Z,14.6
2018-07-09T01:10:02.762Z,14.5
2018-07-09T01:15:03.224Z,14.5
2018-07-09T01:20:02.751Z,14.3
2018-07-09T01:25:03.184Z,14.3
2018-07-09T01:30:02.731Z,14.3
2018-07-09T01:35:02.295Z,14.3
2018-07-09T01:40:02.844Z,14.3
2018-07-09T01:45:02.307Z,14.3
2018-07-09T01:50:02.765Z,14.3
2018-07-09T01:55:03.264Z,14.3
2018-07-09T02:00:02.688Z,14.1
2018-07-09T02:05:03.190Z,14.1
2018-07-09T02:10:02.701Z,14.1
2018-07-09T02:15:03.157Z,14.1
2018-07-09T02:20:02.718Z,14.0
2018-07-09T02:25:03.148Z,14.0
2018-07-09T02:30:02.549Z,14.0
2018-07-09T02:35:03.149Z,13.6
2018-07-09T02:40:02.887Z,13.6
2018-07-09T02:45:02.373Z,13.6
2018-07-09T02:50:02.793Z,13.6
2018-07-09T02:55:02.304Z,13.6
2018-07-09T03:00:02.731Z,13.6
2018-07-09T03:05:03.208Z,13.6
2018-07-09T03:10:02.698Z,13.6
2018-07-09T03:15:03.186Z,13.6
2018-07-09T03:20:02.670Z,13.6
2018-07-09T03:25:03.154Z,13.5
2018-07-09T03:30:02.621Z,13.5
2018-07-09T03:35:03.270Z,13.6
2018-07-09T03:40:02.791Z,13.6
2018-07-09T03:45:03.244Z,13.5
2018-07-09T03:50:02.686Z,13.5
2018-07-09T03:55:03.088Z,13.6
2018-07-09T04:00:02.888Z,13.5
2018-07-09T04:05:02.398Z,13.6
2018-07-09T04:10:02.899Z,13.6
2018-07-09T04:15:02.474Z,13.6
2018-07-09T04:20:02.941Z,13.6
2018-07-09T04:25:02.360Z,13.8
2018-07-09T04:30:02.947Z,14.0
2018-07-09T04:35:02.379Z,14.3
2018-07-09T04:40:02.889Z,14.3
2018-07-09T04:45:02.302Z,14.5
2018-07-09T04:50:03.281Z,14.3
2018-07-09T04:55:02.746Z,14.5
2018-07-09T05:00:02.268Z,14.3
2018-07-09T05:05:02.699Z,14.5
2018-07-09T05:10:02.336Z,14.6
2018-07-09T05:15:02.755Z,15.1
2018-07-09T05:20:03.226Z,15.5
2018-07-09T05:25:02.737Z,16.2
2018-07-09T05:30:03.202Z,16.3
2018-07-09T05:35:02.639Z,16.6
2018-07-09T05:40:03.189Z,16.2
2018-07-09T05:45:03.152Z,16.3
2018-07-09T05:50:02.599Z,16.0
2018-07-09T05:55:03.060Z,16.3
2018-07-09T06:00:02.870Z,16.6
2018-07-09T06:05:02.370Z,17.1
2018-07-09T06:10:02.911Z,17.5
2018-07-09T06:15:02.496Z,18.1
2018-07-09T06:20:03.172Z,18.5
2018-07-09T06:25:02.624Z,18.2
2018-07-09T06:30:03.096Z,18.2
2018-07-09T06:35:02.618Z,18.2
2018-07-09T06:40:03.143Z,18.8
2018-07-09T06:45:02.608Z,19.0
2018-07-09T06:50:03.140Z,18.8
2018-07-09T06:55:02.894Z,19.0
2018-07-09T07:00:02.476Z,18.6
2018-07-09T07:05:02.969Z,19.2
2018-07-09T07:10:02.452Z,19.7
2018-07-09T07:15:02.904Z,19.3
2018-07-09T07:20:02.342Z,19.7
2018-07-09T07:25:02.850Z,20.2
2018-07-09T07:30:02.340Z,20.2
2018-07-09T07:35:02.884Z,20.3
2018-07-09T07:40:02.325Z,19.7
2018-07-09T07:45:02.772Z,20.1
2018-07-09T07:50:02.318Z,20.7
2018-07-09T07:55:02.778Z,20.3
2018-07-09T08:00:03.273Z,19.7
2018-07-09T08:05:02.692Z,21.3
2018-07-09T08:10:03.234Z,21.6
2018-07-09T08:15:02.642Z,22.3
2018-07-09T08:20:03.164Z,23.6
2018-07-09T08:25:02.623Z,23.2
2018-07-09T08:30:02.838Z,23.6
2018-07-09T08:35:02.389Z,21.5
2018-07-09T08:40:02.872Z,23.6
2018-07-09T08:45:02.357Z,24.3
2018-07-09T08:50:02.843Z,25.1
2018-07-09T08:55:02.690Z,25.1
2018-07-09T09:00:03.196Z,24.3
2018-07-09T09:05:02.701Z,23.2
2018-07-09T09:10:03.240Z,26.0
2018-07-09T09:15:03.166Z,25.1
2018-07-09T09:20:02.695Z,26.2
2018-07-09T09:25:03.127Z,24.6
2018-07-09T09:30:02.531Z,25.2
2018-07-09T09:35:02.963Z,25.1
2018-07-09T09:40:02.427Z,25.7
2018-07-09T09:45:02.918Z,26.6
2018-07-09T09:50:02.357Z,26.7
2018-07-09T09:55:02.827Z,27.2
2018-07-09T10:00:02.877Z,27.2
2018-07-09T10:05:02.404Z,24.3
2018-07-09T10:10:02.920Z,24.2
2018-07-09T10:15:02.403Z,23.6
2018-07-09T10:20:02.880Z,23.2
2018-07-09T10:25:02.320Z,23.7
2018-07-09T10:30:02.858Z,24.0
2018-07-09T10:35:02.285Z,25.3
2018-07-09T10:40:02.790Z,25.1
2018-07-09T10:45:03.244Z,25.2
2018-07-09T10:50:02.699Z,24.8
2018-07-09T10:55:03.154Z,25.1
2018-07-09T11:00:02.610Z,25.3
2018-07-09T11:05:03.160Z,26.2
2018-07-09T11:10:02.730Z,25.8
2018-07-09T11:15:03.226Z,26.0
2018-07-09T11:20:02.699Z,24.8
2018-07-09T11:25:03.222Z,24.8
2018-07-09T11:30:02.644Z,25.7
2018-07-09T11:35:03.122Z,26.0
2018-07-09T11:40:02.596Z,26.0
2018-07-09T11:45:03.034Z,26.2
2018-07-09T11:50:02.508Z,25.7
2018-07-09T11:55:03.286Z,26.6
2018-07-09T12:00:02.777Z,27.2
2018-07-09T12:05:02.705Z,26.7
2018-07-09T12:10:02.264Z,26.7
2018-07-09T12:15:02.735Z,27.2
2018-07-09T12:20:03.220Z,25.8
2018-07-09T12:25:02.658Z,26.0
2018-07-09T12:30:03.121Z,26.5
2018-07-09T12:35:02.721Z,27.2
2018-07-09T12:40:03.212Z,27.1
2018-07-09T12:45:02.739Z,28.2
2018-07-09T12:50:02.266Z,27.7
2018-07-09T12:55:02.777Z,27.5
2018-07-09T13:00:02.314Z,27.1
2018-07-09T13:05:02.813Z,25.7
2018-07-09T13:10:02.435Z,25.6
2018-07-09T13:15:02.884Z,25.3
2018-07-09T13:20:02.387Z,26.0
2018-07-09T13:25:03.023Z,26.0
2018-07-09T13:30:02.494Z,24.8
2018-07-09T13:35:03.232Z,24.5
2018-07-09T13:40:02.763Z,24.8
2018-07-09T13:45:03.178Z,24.2
2018-07-09T13:50:02.703Z,24.0
2018-07-09T13:55:03.311Z,24.2
2018-07-09T14:00:02.765Z,23.8
2018-07-09T14:05:02.378Z,23.8
2018-07-09T14:10:02.855Z,24.2
2018-07-09T14:15:02.300Z,23.7
2018-07-09T14:20:02.747Z,23.3
2018-07-09T14:25:03.233Z,22.7
2018-07-09T14:30:02.729Z,23.2
2018-07-09T14:35:02.307Z,24.5
2018-07-09T14:40:02.817Z,25.3
2018-07-09T14:45:03.285Z,26.0
2018-07-09T14:50:03.004Z,25.5
2018-07-09T14:55:02.435Z,24.6
2018-07-09T15:00:02.944Z,25.0
2018-07-09T15:05:02.445Z,25.3
2018-07-09T15:10:03.087Z,24.7
2018-07-09T15:15:02.590Z,24.7
2018-07-09T15:20:03.041Z,25.0
2018-07-09T15:25:02.450Z,25.6
2018-07-09T15:30:03.067Z,24.7
2018-07-09T15:35:02.660Z,24.5
2018-07-09T15:40:02.344Z,24.6
2018-07-09T15:45:02.749Z,24.0
2018-07-09T15:50:03.265Z,23.6
2018-07-09T15:55:02.653Z,23.2
2018-07-09T16:00:03.156Z,23.2
2018-07-09T16:05:03.206Z,23.7
2018-07-09T16:10:02.765Z,25.1
2018-07-09T16:15:03.182Z,24.8
2018-07-09T16:20:02.664Z,23.6
2018-07-09T16:25:03.474Z,23.7
2018-07-09T16:30:02.861Z,23.6
2018-07-09T16:35:02.450Z,23.6
2018-07-09T16:40:02.948Z,23.8
2018-07-09T16:45:02.489Z,23.6
2018-07-09T16:50:02.899Z,22.3
2018-07-09T16:55:02.308Z,22.6
2018-07-09T17:00:02.826Z,22.1
2018-07-09T17:05:02.364Z,22.2
2018-07-09T17:10:02.883Z,22.0
2018-07-09T17:15:03.209Z,21.8
2018-07-09T17:20:02.592Z,21.8
2018-07-09T17:25:03.019Z,21.8
2018-07-09T17:30:02.470Z,21.8
2018-07-09T17:35:02.861Z,21.6
2018-07-09T17:40:02.321Z,21.2
2018-07-09T17:45:02.753Z,20.7
2018-07-09T17:50:02.303Z,20.7
2018-07-09T17:55:03.058Z,20.6
2018-07-09T18:00:02.442Z,20.2
2018-07-09T18:05:02.964Z,20.2
2018-07-09T18:10:02.399Z,20.2
2018-07-09T18:15:02.885Z,19.7
2018-07-09T18:20:02.326Z,19.1
2018-07-09T18:25:02.878Z,19.1
2018-07-09T18:30:02.321Z,19.0
2018-07-09T18:35:02.832Z,18.6
2018-07-09T18:40:02.292Z,18.5
2018-07-09T18:45:02.847Z,18.2
2018-07-09T18:50:03.230Z,18.2
2018-07-09T18:55:02.638Z,18.2
2018-07-09T19:00:03.067Z,18.2
2018-07-09T19:05:02.522Z,18.1
2018-07-09T19:10:03.049Z,17.8
2018-07-09T19:15:02.559Z,17.8
2018-07-09T19:20:03.044Z,17.7
2018-07-09T19:25:02.566Z,17.7
2018-07-09T19:30:03.060Z,17.7
2018-07-09T19:35:02.567Z,17.7
2018-07-09T19:40:03.011Z,17.7
2018-07-09T19:45:02.503Z,17.5
2018-07-09T19:50:02.988Z,17.3
2018-07-09T19:55:02.506Z,17.2
2018-07-09T20:00:03.010Z,17.2
2018-07-09T20:05:02.492Z,17.2
2018-07-09T20:10:02.547Z,17.1
2018-07-09T20:15:03.051Z,17.2
2018-07-09T20:20:02.714Z,17.2
2018-07-09T20:25:02.262Z,17.3
2018-07-09T20:30:02.844Z,17.3
2018-07-09T20:35:02.301Z,17.3
2018-07-09T20:40:02.838Z,17.5
2018-07-09T20:45:02.429Z,17.3
2018-07-09T20:50:02.951Z,17.3
2018-07-09T20:55:02.397Z,16.6
2018-07-09T21:00:02.889Z,16.2
2018-07-09T21:05:02.386Z,16.0
2018-07-09T21:10:02.936Z,15.8
2018-07-09T21:15:02.414Z,15.8
2018-07-09T21:20:03.239Z,15.8
2018-07-09T21:25:02.681Z,15.8
2018-07-09T21:30:03.094Z,15.8
2018-07-09T21:35:02.513Z,15.6
2018-07-09T21:40:03.068Z,15.8
2018-07-09T21:45:02.503Z,15.8
2018-07-09T21:50:02.875Z,15.8
2018-07-09T21:55:02.297Z,15.6
2018-07-09T22:00:02.742Z,15.6
2018-07-09T22:05:03.156Z,15.8
2018-07-09T22:10:02.635Z,15.8
2018-07-09T22:15:03.125Z,15.6
2018-07-09T22:20:02.639Z,15.8
2018-07-09T22:25:03.134Z,15.3
2018-07-09T22:30:02.564Z,14.5
2018-07-09T22:35:02.942Z,14.3
2018-07-09T22:40:02.408Z,14.5
2018-07-09T22:45:03.225Z,14.5
2018-07-09T22:50:02.766Z,14.5
2018-07-09T22:55:03.193Z,14.6
2018-07-09T23:00:02.525Z,14.6
2018-07-09T23:05:02.331Z,14.6
2018-07-09T23:10:02.769Z,14.6
2018-07-09T23:15:03.249Z,14.6
2018-07-09T23:20:02.702Z,14.6
2018-07-09T23:25:03.131Z,14.5
2018-07-09T23:30:02.559Z,14.5
2018-07-09T23:35:03.097Z,14.5
2018-07-09T23:40:02.596Z,14.5
2018-07-09T23:45:03.046Z,14.6
2018-07-09T23:50:02.512Z,14.5
2018-07-09T23:55:02.935Z,14.5
